Time;durP1;ratioP1;P1;durP2;ratioP2;P2;SDS_P1;SDS_P2;PMS_P1;PMS_P2;Temp;Humidity;BMP_temperature;BMP_pressure;BME280_temperature;BME280_humidity;BME280_pressure;Samples;Min_cycle;Max_cycle;Signal;HPM_P1;HPM_P2
2024/02/23 00:02:19;;;;;;;12.60;7.77;;;8.70;99.90;;;;;;5034252;28;20213;-84
2024/02/23 00:05:07;;;;;;;11.30;7.47;;;8.70;99.90;;;;;;5034158;28;20210;-83
2024/02/23 00:07:54;;;;;;;12.43;7.97;;;8.80;99.90;;;;;;5032978;28;20757;-83
2024/02/23 00:10:42;;;;;;;11.97;7.43;;;8.80;99.90;;;;;;5033423;28;20198;-83
2024/02/23 00:13:30;;;;;;;11.93;7.67;;;8.70;99.90;;;;;;5033217;28;20359;-83
2024/02/23 00:16:17;;;;;;;11.47;7.30;;;8.70;99.90;;;;;;5033318;28;20190;-84
2024/02/23 00:19:04;;;;;;;12.93;7.23;;;8.70;99.90;;;;;;5032041;28;20227;-84
2024/02/23 00:21:52;;;;;;;11.90;7.17;;;8.70;99.90;;;;;;5034119;28;20640;-84
2024/02/23 00:24:41;;;;;;;11.70;7.17;;;8.70;99.90;;;;;;5032186;28;20263;-84
2024/02/23 00:27:28;;;;;;;10.57;7.20;;;8.80;99.90;;;;;;5032614;28;20366;-81
2024/02/23 00:30:16;;;;;;;11.00;7.00;;;8.80;99.90;;;;;;5032669;28;20206;-84
2024/02/23 00:33:04;;;;;;;10.33;7.10;;;8.80;99.90;;;;;;5018015;28;20226;-83
2024/02/23 00:35:52;;;;;;;9.43;6.73;;;8.80;99.90;;;;;;5032727;28;20195;-84
2024/02/23 00:38:45;;;;;;;10.47;7.27;;;8.80;99.90;;;;;;5032977;28;20543;-84
2024/02/23 00:41:33;;;;;;;9.43;6.90;;;8.80;99.90;;;;;;5033116;28;20205;-83
2024/02/23 00:44:21;;;;;;;9.10;6.63;;;8.70;99.90;;;;;;5032724;28;20206;-84
2024/02/23 00:47:09;;;;;;;9.80;7.17;;;8.80;99.90;;;;;;5018188;28;20202;-83
2024/02/23 00:50:00;;;;;;;10.03;6.77;;;8.80;99.90;;;;;;5032285;28;20580;-83
2024/02/23 00:52:50;;;;;;;8.57;6.60;;;8.70;99.90;;;;;;5018623;28;20225;-83
2024/02/23 00:55:38;;;;;;;9.93;7.13;;;8.70;99.90;;;;;;5032645;28;20246;-83
2024/02/23 00:58:26;;;;;;;10.40;6.93;;;8.70;99.90;;;;;;5031996;28;20221;-83
2024/02/23 01:01:13;;;;;;;11.80;7.10;;;8.70;99.90;;;;;;5017801;28;20330;-83
2024/02/23 01:04:01;;;;;;;9.30;7.00;;;8.70;99.90;;;;;;5032535;28;20233;-83
2024/02/23 01:06:49;;;;;;;10.53;6.60;;;8.70;99.90;;;;;;5032941;28;20623;-83
2024/02/23 01:09:36;;;;;;;9.87;6.60;;;8.70;99.90;;;;;;5016511;28;20199;-83
2024/02/23 01:12:24;;;;;;;10.47;6.60;;;8.70;99.90;;;;;;5031640;28;20229;-83
2024/02/23 01:15:12;;;;;;;9.90;7.27;;;8.60;99.90;;;;;;5031795;28;20566;-83
2024/02/23 01:18:00;;;;;;;11.07;6.93;;;8.60;99.90;;;;;;5017863;28;20210;-83
2024/02/23 01:20:47;;;;;;;10.27;7.23;;;8.60;99.90;;;;;;5017553;28;20195;-84
2024/02/23 01:23:35;;;;;;;10.57;7.03;;;8.60;99.90;;;;;;5018831;28;20198;-83
2024/02/23 01:26:23;;;;;;;10.13;6.90;;;8.60;99.90;;;;;;5017853;28;20205;-83
2024/02/23 01:29:11;;;;;;;10.23;6.80;;;8.60;99.90;;;;;;5031002;28;20231;-84
2024/02/23 01:32:00;;;;;;;10.83;7.57;;;8.50;99.90;;;;;;5017609;28;20202;-83
2024/02/23 01:34:47;;;;;;;11.07;7.03;;;8.50;99.90;;;;;;5031937;28;20209;-84
2024/02/23 01:37:35;;;;;;;10.40;6.87;;;8.50;99.90;;;;;;5032022;28;20393;-85
2024/02/23 01:40:23;;;;;;;9.93;7.00;;;8.50;99.90;;;;;;5032427;28;20196;-83
2024/02/23 01:43:10;;;;;;;9.37;6.57;;;8.50;99.90;;;;;;5032317;28;20549;-83
2024/02/23 01:45:58;;;;;;;11.10;7.43;;;8.50;99.90;;;;;;5031388;28;20281;-83
2024/02/23 01:48:46;;;;;;;9.67;6.87;;;8.50;99.90;;;;;;5031128;28;20192;-83
2024/02/23 01:51:34;;;;;;;9.93;6.90;;;8.50;99.90;;;;;;5017650;28;20199;-83
2024/02/23 01:54:22;;;;;;;9.20;6.87;;;8.50;99.90;;;;;;5031237;28;20223;-84
2024/02/23 01:57:10;;;;;;;8.53;6.60;;;8.60;99.90;;;;;;5030593;28;20217;-84
2024/02/23 02:00:18;;;;;;;8.00;6.23;;;8.60;99.90;;;;;;5031516;28;20312;-84
2024/02/23 02:03:06;;;;;;;9.37;5.97;;;8.60;99.90;;;;;;5018044;28;20598;-83
2024/02/23 02:05:58;;;;;;;8.43;6.27;;;8.70;99.90;;;;;;5031583;28;20321;-83
2024/02/23 02:08:46;;;;;;;9.00;5.80;;;8.70;99.90;;;;;;5033754;28;20221;-83
2024/02/23 02:11:34;;;;;;;7.87;5.90;;;8.70;99.90;;;;;;5035527;28;20588;-84
2024/02/23 02:14:22;;;;;;;8.97;5.87;;;8.70;99.90;;;;;;5038303;28;20219;-84
2024/02/23 02:17:10;;;;;;;8.93;6.03;;;8.80;99.90;;;;;;5038630;28;20229;-82
2024/02/23 02:20:01;;;;;;;7.93;5.83;;;8.80;99.90;;;;;;5038757;28;20575;-83
2024/02/23 02:22:49;;;;;;;7.43;5.90;;;8.80;99.90;;;;;;5034450;28;20728;-83
2024/02/23 02:25:37;;;;;;;8.43;5.97;;;8.80;99.90;;;;;;5020352;28;20201;-84
2024/02/23 02:28:25;;;;;;;9.03;5.37;;;8.80;99.90;;;;;;5033290;28;20585;-82
2024/02/23 02:31:13;;;;;;;7.23;5.50;;;8.80;99.90;;;;;;5034363;28;20207;-84
2024/02/23 02:34:01;;;;;;;9.13;5.43;;;8.80;99.90;;;;;;5035080;28;20669;-83
2024/02/23 02:36:51;;;;;;;7.30;5.23;;;8.80;99.90;;;;;;5034784;28;20206;-83
2024/02/23 02:39:39;;;;;;;7.53;5.30;;;8.90;99.90;;;;;;5021698;28;20234;-83
2024/02/23 02:42:28;;;;;;;8.10;5.00;;;8.80;99.90;;;;;;5005909;28;20222;-83
2024/02/23 02:47:49;;;;;;;7.20;5.13;;;8.90;99.90;;;;;;4995177;28;20232;-83
2024/02/23 02:50:37;;;;;;;7.50;4.80;;;8.90;99.90;;;;;;4994543;28;20648;-84
2024/02/23 02:53:25;;;;;;;7.10;4.37;;;8.90;99.90;;;;;;4980538;28;20228;-84
2024/02/23 02:56:12;;;;;;;6.23;4.70;;;8.90;99.90;;;;;;4994485;28;20662;-83
2024/02/23 02:59:00;;;;;;;6.03;4.40;;;8.90;99.90;;;;;;4981060;28;20199;-83
2024/02/23 03:01:47;;;;;;;5.97;4.20;;;8.90;99.90;;;;;;4994257;28;20676;-83
2024/02/23 03:04:35;;;;;;;5.83;4.30;;;9.00;99.90;;;;;;4996439;28;20279;-83
2024/02/23 03:07:22;;;;;;;7.23;4.40;;;9.00;99.90;;;;;;4995345;28;20225;-83
2024/02/23 03:10:10;;;;;;;5.50;4.47;;;9.00;99.90;;;;;;4995168;28;20207;-83
2024/02/23 03:12:57;;;;;;;5.43;4.00;;;9.00;99.90;;;;;;4995195;28;20207;-83
2024/02/23 03:15:45;;;;;;;6.20;4.40;;;9.00;99.90;;;;;;4979858;28;20358;-83
2024/02/23 03:22:46;;;;;;;6.50;4.40;;;8.90;99.90;;;;;;4994452;28;20370;-84
2024/02/23 03:25:33;;;;;;;8.37;5.10;;;8.80;99.90;;;;;;4994496;28;20663;-85
2024/02/23 03:30:56;;;;;;;5.93;4.40;;;8.50;99.90;;;;;;5070916;23;20728;-85
2024/02/23 03:33:45;;;;;;;6.73;4.73;;;8.40;99.90;;;;;;5012742;28;20217;-85
2024/02/23 03:36:39;;;;;;;6.33;4.67;;;8.40;99.90;;;;;;5037322;23;20322;-85
2024/02/23 03:39:28;;;;;;;6.70;4.80;;;8.40;99.90;;;;;;5014233;28;20199;-85
2024/02/23 03:42:15;;;;;;;6.07;4.40;;;8.30;99.90;;;;;;5013210;28;20196;-84
2024/02/23 03:45:05;;;;;;;7.53;4.93;;;8.20;99.90;;;;;;5011996;28;20657;-84
2024/02/23 03:47:52;;;;;;;7.90;5.10;;;8.00;99.90;;;;;;5134286;23;20243;-85
2024/02/23 03:50:41;;;;;;;7.03;4.70;;;8.10;99.90;;;;;;5034575;28;20202;-84
2024/02/23 03:53:29;;;;;;;7.40;4.70;;;8.10;99.90;;;;;;5031844;28;20316;-85
2024/02/23 03:56:16;;;;;;;6.67;5.00;;;8.00;99.90;;;;;;5031782;28;20206;-85
2024/02/23 03:59:04;;;;;;;5.53;4.77;;;8.00;99.90;;;;;;5033313;28;20252;-85
2024/02/23 04:01:52;;;;;;;7.17;5.20;;;8.00;99.90;;;;;;5024795;28;20249;-85
2024/02/23 04:04:40;;;;;;;6.97;4.50;;;8.00;99.90;;;;;;5012706;28;20200;-85
2024/02/23 04:07:28;;;;;;;6.27;4.80;;;8.00;99.90;;;;;;5013447;28;20196;-85
2024/02/23 04:10:16;;;;;;;5.50;4.57;;;8.00;99.90;;;;;;5014422;28;20206;-85
2024/02/23 04:13:04;;;;;;;7.00;4.87;;;7.90;99.90;;;;;;5013640;28;20195;-85
2024/02/23 04:15:52;;;;;;;7.93;4.90;;;7.90;99.90;;;;;;5014271;28;20198;-85
2024/02/23 04:18:39;;;;;;;6.63;4.93;;;7.90;99.90;;;;;;5013192;28;20646;-86
2024/02/23 04:21:27;;;;;;;9.20;5.07;;;7.90;99.90;;;;;;5013553;28;20206;-85
2024/02/23 04:24:15;;;;;;;6.43;5.03;;;8.00;99.90;;;;;;5011810;28;20204;-85
2024/02/23 04:27:03;;;;;;;7.50;5.00;;;7.90;99.90;;;;;;5013554;28;20445;-85
2024/02/23 04:29:51;;;;;;;6.53;5.00;;;7.90;99.90;;;;;;5011360;28;20245;-85
2024/02/23 04:32:40;;;;;;;7.10;4.77;;;7.90;99.90;;;;;;5012385;28;20222;-85
2024/02/23 04:35:28;;;;;;;6.83;4.80;;;7.90;99.90;;;;;;5013925;28;20239;-86
2024/02/23 04:38:15;;;;;;;7.87;5.40;;;7.80;99.90;;;;;;5011728;28;20208;-86
2024/02/23 04:41:05;;;;;;;6.67;5.00;;;7.80;99.90;;;;;;5012233;28;20222;-86
2024/02/23 04:43:58;;;;;;;8.13;5.23;;;7.80;99.90;;;;;;5011626;28;20198;-86
2024/02/23 04:46:49;;;;;;;7.07;5.10;;;7.80;99.90;;;;;;5007711;28;20706;-86
2024/02/23 04:49:36;;;;;;;7.30;4.93;;;7.80;99.90;;;;;;4993382;28;20200;-86
2024/02/23 04:52:24;;;;;;;7.23;4.90;;;7.80;99.90;;;;;;4992958;28;20284;-86
2024/02/23 04:55:11;;;;;;;7.43;4.97;;;7.70;99.90;;;;;;4992791;28;20216;-85
2024/02/23 04:57:59;;;;;;;6.50;4.33;;;7.70;99.90;;;;;;4978790;28;20278;-86
2024/02/23 05:00:46;;;;;;;7.07;4.53;;;7.70;99.90;;;;;;4991746;28;20281;-86
2024/02/23 05:03:34;;;;;;;6.80;4.80;;;7.70;99.90;;;;;;4992498;28;20195;-86
2024/02/23 05:06:22;;;;;;;6.43;4.40;;;7.70;99.90;;;;;;4978555;28;20244;-86
2024/02/23 05:09:11;;;;;;;6.23;4.60;;;7.80;99.90;;;;;;4978115;28;20196;-87
2024/02/23 05:11:59;;;;;;;7.63;4.73;;;7.80;99.90;;;;;;4992346;28;20210;-87
2024/02/23 05:14:47;;;;;;;6.37;4.87;;;7.70;99.90;;;;;;4992927;28;20298;-87
2024/02/23 05:17:35;;;;;;;5.87;4.50;;;7.80;99.90;;;;;;4977279;28;20222;-87
2024/02/23 05:20:23;;;;;;;7.37;5.00;;;7.70;99.90;;;;;;4977332;28;20247;-87
2024/02/23 05:23:11;;;;;;;7.70;4.70;;;7.80;99.90;;;;;;4977763;28;20214;-87
2024/02/23 05:25:59;;;;;;;6.57;4.60;;;7.70;99.90;;;;;;4991443;28;20208;-86
2024/02/23 05:28:48;;;;;;;6.80;4.67;;;7.70;99.90;;;;;;4992365;28;20625;-87
2024/02/23 05:31:48;;;;;;;7.03;4.67;;;7.70;99.90;;;;;;4977631;28;20692;-86
2024/02/23 05:34:35;;;;;;;9.27;4.57;;;7.70;99.90;;;;;;4978028;28;20227;-87
2024/02/23 05:37:24;;;;;;;6.90;4.67;;;7.60;99.90;;;;;;4992660;28;20191;-87
2024/02/23 05:40:12;;;;;;;6.43;4.40;;;7.60;99.90;;;;;;4992091;28;20689;-87
2024/02/23 05:42:59;;;;;;;8.13;4.60;;;7.60;99.90;;;;;;4990766;28;20686;-88
2024/02/23 05:45:47;;;;;;;6.63;4.67;;;7.60;99.90;;;;;;4976838;28;20655;-87
2024/02/23 05:48:34;;;;;;;7.27;4.70;;;7.60;99.90;;;;;;5011177;28;20239;-88
2024/02/23 05:51:22;;;;;;;6.33;4.20;;;7.60;99.90;;;;;;4996910;28;20195;-87
2024/02/23 05:54:10;;;;;;;8.40;4.77;;;7.60;99.90;;;;;;5011308;28;20352;-87
2024/02/23 05:56:58;;;;;;;6.13;4.37;;;7.60;99.90;;;;;;4997597;28;20210;-87
2024/02/23 05:59:46;;;;;;;6.37;4.70;;;7.60;99.90;;;;;;4997357;28;20214;-88
2024/02/23 06:02:33;;;;;;;6.60;4.53;;;7.60;99.90;;;;;;5011642;28;20222;-87
2024/02/23 06:05:21;;;;;;;7.43;4.50;;;7.60;99.90;;;;;;4998111;28;20658;-87
2024/02/23 06:08:10;;;;;;;5.83;4.30;;;7.60;99.90;;;;;;5013593;28;20214;-87
2024/02/23 06:10:59;;;;;;;6.07;4.60;;;7.60;99.90;;;;;;5012621;28;20242;-87
2024/02/23 06:13:47;;;;;;;7.97;4.83;;;7.60;99.90;;;;;;5010355;28;20317;-87
2024/02/23 06:16:35;;;;;;;6.83;4.80;;;7.60;99.90;;;;;;5010955;28;20222;-88
2024/02/23 06:19:23;;;;;;;6.47;4.60;;;7.60;99.90;;;;;;5012724;28;20203;-87
2024/02/23 06:22:12;;;;;;;6.17;4.67;;;7.60;99.90;;;;;;5012379;28;20249;-88
2024/02/23 06:24:59;;;;;;;6.03;4.73;;;7.60;99.90;;;;;;4997858;28;20220;-88
2024/02/23 06:27:47;;;;;;;8.33;5.07;;;7.60;99.90;;;;;;4999112;28;20295;-87
2024/02/23 06:30:34;;;;;;;8.27;5.10;;;7.60;99.90;;;;;;5011839;28;20672;-88
2024/02/23 06:33:25;;;;;;;9.60;4.83;;;7.60;99.90;;;;;;5010822;28;20301;-88
2024/02/23 06:36:18;;;;;;;6.33;4.77;;;7.60;99.90;;;;;;4997442;28;20208;-88
2024/02/23 06:39:05;;;;;;;7.80;4.90;;;7.70;99.90;;;;;;5011250;28;20208;-86
2024/02/23 06:41:53;;;;;;;7.97;5.03;;;7.70;99.90;;;;;;4998128;28;20385;-87
2024/02/23 06:44:41;;;;;;;8.30;4.90;;;7.70;99.90;;;;;;5011287;28;20605;-88
2024/02/23 06:47:29;;;;;;;9.10;5.43;;;7.70;99.90;;;;;;5002797;28;20275;-86
2024/02/23 06:50:17;;;;;;;9.63;5.20;;;7.80;99.90;;;;;;4979855;28;20212;-85
2024/02/23 06:53:07;;;;;;;6.93;4.90;;;7.80;99.90;;;;;;4978516;28;20213;-89
2024/02/23 06:55:55;;;;;;;9.80;5.20;;;7.80;99.90;;;;;;4996544;28;20226;-88
2024/02/23 06:58:42;;;;;;;8.23;5.20;;;7.70;99.90;;;;;;4997479;28;20211;-89
2024/02/23 07:01:31;;;;;;;8.23;5.00;;;7.70;99.90;;;;;;4996816;28;20219;-88
2024/02/23 07:04:19;;;;;;;8.70;5.47;;;7.70;99.90;;;;;;4981934;28;20195;-89
2024/02/23 07:07:08;;;;;;;7.43;5.13;;;7.80;99.90;;;;;;4995033;28;20584;-86
2024/02/23 07:09:56;;;;;;;6.90;5.10;;;7.80;99.90;;;;;;4995247;28;20207;-87
2024/02/23 07:12:44;;;;;;;8.00;4.97;;;7.80;99.90;;;;;;4994086;28;20196;-86
2024/02/23 07:15:32;;;;;;;8.13;5.17;;;7.80;99.90;;;;;;4993484;28;20230;-86
2024/02/23 07:18:20;;;;;;;7.77;5.23;;;7.80;99.90;;;;;;4993828;28;20719;-85
2024/02/23 07:21:07;;;;;;;8.23;5.10;;;7.70;99.90;;;;;;4980209;28;20282;-86
2024/02/23 07:23:54;;;;;;;7.70;5.03;;;7.80;99.90;;;;;;4994957;28;20193;-87
2024/02/23 07:26:42;;;;;;;8.33;5.30;;;7.80;99.90;;;;;;4994308;28;20201;-87
2024/02/23 07:29:30;;;;;;;8.53;4.97;;;7.80;99.90;;;;;;4994503;28;20230;-86
2024/02/23 07:32:17;;;;;;;8.00;5.40;;;7.80;99.90;;;;;;4994044;28;20216;-87
2024/02/23 07:35:05;;;;;;;6.23;4.63;;;7.80;99.90;;;;;;4993323;28;20227;-87
2024/02/23 07:37:52;;;;;;;8.80;5.40;;;7.90;99.90;;;;;;4994813;28;20203;-87
2024/02/23 07:40:40;;;;;;;7.43;5.03;;;7.90;99.90;;;;;;4994232;28;20207;-87
2024/02/23 07:43:29;;;;;;;8.30;5.73;;;7.80;99.90;;;;;;4994170;28;20234;-87
2024/02/23 07:46:16;;;;;;;7.40;5.10;;;7.90;99.90;;;;;;4993935;28;20231;-86
2024/02/23 07:49:05;;;;;;;9.17;5.10;;;7.90;99.90;;;;;;4978957;28;20206;-86
2024/02/23 07:51:53;;;;;;;10.20;5.80;;;7.90;99.90;;;;;;4978618;28;20200;-86
2024/02/23 07:54:41;;;;;;;8.63;5.60;;;8.00;99.90;;;;;;4993953;28;20586;-87
2024/02/23 07:57:31;;;;;;;9.70;5.90;;;8.00;99.90;;;;;;4993935;28;20632;-87
2024/02/23 08:00:18;;;;;;;8.37;5.73;;;8.00;99.90;;;;;;4994334;28;20199;-87
2024/02/23 08:03:08;;;;;;;8.30;6.00;;;8.00;99.90;;;;;;4993106;28;20694;-86
2024/02/23 08:05:55;;;;;;;9.23;6.13;;;8.00;99.90;;;;;;4993768;28;20668;-87
2024/02/23 08:08:47;;;;;;;9.67;6.03;;;8.00;99.90;;;;;;4991381;28;20237;-87
2024/02/23 08:11:35;;;;;;;9.90;6.50;;;8.00;99.90;;;;;;4979788;28;20194;-86
2024/02/23 08:14:23;;;;;;;9.53;6.23;;;8.00;99.90;;;;;;4993714;28;20221;-86
2024/02/23 08:17:11;;;;;;;10.37;6.37;;;8.10;99.90;;;;;;4994151;28;20214;-86
2024/02/23 08:19:59;;;;;;;11.33;6.10;;;8.10;99.90;;;;;;4994094;28;20741;-86
2024/02/23 08:22:46;;;;;;;10.57;6.63;;;8.20;99.90;;;;;;4993323;28;20190;-87
2024/02/23 08:25:34;;;;;;;11.17;6.83;;;8.20;99.90;;;;;;4993114;28;20732;-87
2024/02/23 08:28:21;;;;;;;9.60;6.27;;;8.20;99.90;;;;;;4980531;28;20579;-87
2024/02/23 08:31:09;;;;;;;9.73;5.97;;;8.20;99.90;;;;;;4992997;28;20365;-87
2024/02/23 08:33:57;;;;;;;9.37;6.10;;;8.20;99.90;;;;;;4979351;28;20195;-87
2024/02/23 08:36:45;;;;;;;9.40;6.37;;;8.20;99.90;;;;;;4993696;28;20215;-88
2024/02/23 08:39:35;;;;;;;9.73;6.23;;;8.30;99.90;;;;;;4993695;28;20206;-87
2024/02/23 08:42:23;;;;;;;11.67;6.50;;;8.30;99.90;;;;;;4992908;28;20199;-86
2024/02/23 08:45:13;;;;;;;10.03;6.23;;;8.30;99.90;;;;;;4993190;28;20207;-87
2024/02/23 08:48:00;;;;;;;9.00;6.23;;;8.30;99.90;;;;;;5000496;28;20842;-87
2024/02/23 08:50:52;;;;;;;9.73;6.43;;;8.30;99.90;;;;;;5012856;28;20482;-87
2024/02/23 08:53:47;;;;;;;8.93;6.00;;;8.40;99.90;;;;;;5013707;28;20195;-86
2024/02/23 08:56:42;;;;;;;10.30;6.33;;;8.40;99.90;;;;;;5013596;28;20786;-86
2024/02/23 08:59:30;;;;;;;10.10;6.40;;;8.40;99.90;;;;;;5013537;28;20236;-86
2024/02/23 09:02:18;;;;;;;10.93;6.93;;;8.50;99.90;;;;;;5015451;28;20302;-86
2024/02/23 09:05:06;;;;;;;8.47;6.47;;;8.50;99.90;;;;;;5012559;28;20576;-86
2024/02/23 09:07:54;;;;;;;9.93;6.33;;;8.50;99.90;;;;;;5012959;28;20202;-86
2024/02/23 09:10:42;;;;;;;9.80;6.63;;;8.60;99.90;;;;;;5013299;28;20273;-86
2024/02/23 09:13:30;;;;;;;10.57;6.73;;;8.60;99.90;;;;;;5012663;28;20660;-86
2024/02/23 09:16:18;;;;;;;8.67;6.07;;;8.60;99.90;;;;;;5014904;28;20350;-86
2024/02/23 09:19:06;;;;;;;10.20;7.10;;;8.60;99.90;;;;;;5015537;28;20199;-85
2024/02/23 09:21:54;;;;;;;10.13;6.40;;;8.80;99.90;;;;;;5015710;28;20652;-85
2024/02/23 09:24:42;;;;;;;10.63;6.93;;;8.80;99.90;;;;;;5016129;28;20648;-85
2024/02/23 09:27:29;;;;;;;11.47;6.60;;;8.90;99.90;;;;;;5015318;28;20204;-86
2024/02/23 09:30:17;;;;;;;9.63;6.10;;;8.90;99.90;;;;;;5011092;28;20711;-86
2024/02/23 09:33:05;;;;;;;10.47;6.30;;;8.90;99.90;;;;;;5011404;28;20271;-86
2024/02/23 09:35:53;;;;;;;8.30;6.43;;;9.10;99.90;;;;;;5011488;28;20227;-86
2024/02/23 09:38:40;;;;;;;10.33;6.80;;;9.20;99.90;;;;;;5011374;28;20196;-86
2024/02/23 09:41:28;;;;;;;8.93;6.30;;;9.40;99.90;;;;;;5012345;28;20648;-86
2024/02/23 09:44:18;;;;;;;11.30;6.40;;;9.40;99.90;;;;;;5010467;28;20193;-86
2024/02/23 09:47:11;;;;;;;8.80;5.80;;;9.40;99.90;;;;;;5003602;28;20233;-86
2024/02/23 09:50:03;;;;;;;11.87;6.00;;;9.50;99.90;;;;;;4991965;28;20193;-86
2024/02/23 09:52:51;;;;;;;8.60;5.70;;;9.50;99.90;;;;;;4993234;28;20200;-86
2024/02/23 09:55:40;;;;;;;7.20;5.43;;;9.50;99.90;;;;;;4977603;28;20219;-86
2024/02/23 09:58:29;;;;;;;8.87;5.43;;;9.40;99.90;;;;;;4991029;28;20205;-85
2024/02/23 10:01:27;;;;;;;7.90;6.03;;;9.40;99.90;;;;;;4991908;28;20278;-85
2024/02/23 10:05:18;;;;;;;9.97;5.60;;;9.40;99.90;;;;;;5089797;28;20554;-85
2024/02/23 10:08:06;;;;;;;10.00;6.13;;;9.40;99.90;;;;;;5088205;28;20665;-85
2024/02/23 10:10:55;;;;;;;10.40;6.50;;;9.50;99.90;;;;;;5087951;28;20196;-85
2024/02/23 10:13:45;;;;;;;8.20;5.93;;;9.50;99.90;;;;;;5088284;28;20277;-85
2024/02/23 10:16:33;;;;;;;8.90;6.03;;;9.50;99.90;;;;;;5088079;28;20213;-85
2024/02/23 10:19:29;;;;;;;8.27;5.93;;;9.50;99.90;;;;;;5087028;28;20189;-85
2024/02/23 10:22:17;;;;;;;8.30;5.97;;;9.50;99.90;;;;;;5087380;28;20194;-84
2024/02/23 10:25:05;;;;;;;7.97;5.50;;;9.50;99.90;;;;;;5087609;28;20588;-85
2024/02/23 10:27:52;;;;;;;8.87;5.70;;;9.50;99.90;;;;;;5088784;28;20200;-85
2024/02/23 10:30:40;;;;;;;9.03;5.60;;;9.50;99.90;;;;;;5088152;28;20290;-85
2024/02/23 10:33:32;;;;;;;9.33;5.90;;;9.50;99.90;;;;;;5088016;28;20215;-84
2024/02/23 10:36:22;;;;;;;8.67;6.00;;;9.50;99.90;;;;;;5072133;28;20229;-84
2024/02/23 10:39:10;;;;;;;8.33;5.87;;;9.50;99.90;;;;;;5074685;28;20687;-85
2024/02/23 10:42:03;;;;;;;9.67;6.80;;;9.50;99.90;;;;;;5088355;28;20569;-84
2024/02/23 10:44:52;;;;;;;8.17;5.83;;;9.50;99.90;;;;;;5074698;28;20224;-84
2024/02/23 10:47:40;;;;;;;8.27;5.83;;;9.50;99.90;;;;;;5087618;28;20242;-84
2024/02/23 10:50:28;;;;;;;10.13;5.87;;;9.40;99.90;;;;;;5073806;28;20190;-84
2024/02/23 10:53:19;;;;;;;9.23;6.50;;;9.40;99.90;;;;;;5074280;28;20271;-84
2024/02/23 10:56:07;;;;;;;11.20;6.60;;;9.40;99.90;;;;;;5074279;28;20189;-84
2024/02/23 10:58:55;;;;;;;8.90;6.30;;;9.40;99.90;;;;;;5089233;28;20372;-85
2024/02/23 11:01:43;;;;;;;11.57;6.87;;;9.40;99.90;;;;;;5087380;28;20205;-84
2024/02/23 11:04:33;;;;;;;11.27;6.80;;;9.40;99.90;;;;;;5072330;28;20285;-85
2024/02/23 11:07:21;;;;;;;9.83;6.87;;;9.40;99.90;;;;;;5087997;28;20677;-85
2024/02/23 11:10:13;;;;;;;10.73;7.20;;;9.40;99.90;;;;;;5087584;28;20194;-85
2024/02/23 11:13:07;;;;;;;9.63;6.97;;;9.40;99.90;;;;;;5073436;28;20219;-86
2024/02/23 11:16:02;;;;;;;10.97;6.87;;;9.40;99.90;;;;;;5063533;28;20543;-86
2024/02/23 11:18:49;;;;;;;10.30;7.20;;;9.40;99.90;;;;;;5074248;28;20671;-87
2024/02/23 11:21:38;;;;;;;9.67;7.37;;;9.40;99.90;;;;;;5058991;28;20205;-87
2024/02/23 11:24:29;;;;;;;12.77;6.90;;;9.40;99.90;;;;;;5061074;28;20224;-85
2024/02/23 11:27:19;;;;;;;11.13;7.17;;;9.40;99.90;;;;;;5072874;28;20275;-87
2024/02/23 11:30:10;;;;;;;13.00;7.70;;;9.40;99.90;;;;;;5072940;28;20192;-87
2024/02/23 11:32:59;;;;;;;12.97;8.50;;;9.50;99.90;;;;;;5059860;28;20337;-86
2024/02/23 11:35:51;;;;;;;12.23;8.10;;;9.40;99.90;;;;;;5074513;28;20205;-86
2024/02/23 11:38:39;;;;;;;9.70;7.13;;;9.50;99.90;;;;;;5074570;28;20194;-86
2024/02/23 11:41:28;;;;;;;11.03;7.37;;;9.50;99.90;;;;;;5058575;28;20671;-86
2024/02/23 11:44:17;;;;;;;12.23;7.67;;;9.50;99.90;;;;;;5059514;28;20228;-86
2024/02/23 11:47:05;;;;;;;13.03;8.00;;;9.60;99.90;;;;;;5057955;28;20226;-87
2024/02/23 11:49:53;;;;;;;10.50;7.57;;;9.60;99.90;;;;;;5073132;28;20796;-87
2024/02/23 11:52:40;;;;;;;10.60;7.90;;;9.60;99.90;;;;;;5059382;28;20232;-87
2024/02/23 11:55:28;;;;;;;13.70;8.13;;;9.60;99.90;;;;;;5072296;28;20637;-87
2024/02/23 11:58:18;;;;;;;12.67;8.93;;;9.70;99.90;;;;;;5057971;28;20205;-87
2024/02/23 12:01:06;;;;;;;12.90;8.37;;;9.70;99.90;;;;;;5073596;28;20544;-86
2024/02/23 12:03:55;;;;;;;11.27;7.70;;;9.70;99.90;;;;;;5053742;28;20772;-86
2024/02/23 12:06:42;;;;;;;13.23;8.33;;;9.70;99.90;;;;;;5052296;28;20289;-86
2024/02/23 12:09:30;;;;;;;14.70;9.43;;;9.70;99.90;;;;;;5059524;28;20192;-87
2024/02/23 12:12:18;;;;;;;15.93;9.23;;;9.80;99.90;;;;;;5074007;28;20665;-87
2024/02/23 12:15:06;;;;;;;12.97;9.13;;;9.80;99.90;;;;;;5058533;28;20198;-87
2024/02/23 12:17:57;;;;;;;13.13;8.93;;;9.70;99.90;;;;;;5058960;28;20681;-87
2024/02/23 12:20:48;;;;;;;11.93;8.80;;;9.80;99.90;;;;;;5058483;28;20665;-87
2024/02/23 12:23:43;;;;;;;13.83;8.93;;;9.90;99.90;;;;;;5058345;28;20646;-86
2024/02/23 12:26:34;;;;;;;13.53;8.90;;;9.90;99.90;;;;;;5057416;28;20638;-86
2024/02/23 12:29:21;;;;;;;11.93;8.20;;;10.00;99.90;;;;;;5058774;28;20196;-86
2024/02/23 12:32:09;;;;;;;12.57;8.43;;;10.00;99.90;;;;;;5071812;28;20263;-86
2024/02/23 12:34:57;;;;;;;11.50;8.53;;;10.00;99.90;;;;;;5072192;28;20204;-86
2024/02/23 12:37:45;;;;;;;11.87;8.37;;;10.00;99.90;;;;;;5072179;28;20209;-86
2024/02/23 12:40:33;;;;;;;13.47;8.77;;;10.00;99.90;;;;;;5072820;28;20198;-85
2024/02/23 12:43:21;;;;;;;11.87;8.00;;;10.00;99.90;;;;;;5072018;28;20415;-85
2024/02/23 12:46:09;;;;;;;12.37;8.03;;;10.10;99.90;;;;;;5057665;28;20201;-85
2024/02/23 12:48:56;;;;;;;12.93;8.40;;;10.00;99.90;;;;;;5071812;28;20197;-85
2024/02/23 12:51:44;;;;;;;11.97;8.47;;;10.10;99.90;;;;;;5072982;28;20205;-86
2024/02/23 12:54:32;;;;;;;11.50;8.10;;;10.10;99.90;;;;;;5066984;28;20225;-86
2024/02/23 12:57:19;;;;;;;11.40;8.40;;;10.10;99.90;;;;;;5071091;28;20277;-85
2024/02/23 13:00:08;;;;;;;13.40;9.03;;;10.20;99.90;;;;;;5057605;28;20201;-86
2024/02/23 13:02:56;;;;;;;12.77;8.70;;;10.20;99.90;;;;;;5057470;28;20215;-86
2024/02/23 13:05:44;;;;;;;12.47;8.90;;;10.20;99.90;;;;;;5057585;28;20598;-87
2024/02/23 13:08:33;;;;;;;12.80;9.13;;;10.20;99.90;;;;;;5057802;28;20202;-88
2024/02/23 13:11:24;;;;;;;15.67;9.57;;;10.20;99.90;;;;;;5058155;28;20195;-87
2024/02/23 13:14:12;;;;;;;12.73;9.33;;;10.30;99.90;;;;;;5043302;28;20202;-87
2024/02/23 13:16:59;;;;;;;13.67;9.10;;;10.30;99.90;;;;;;5071420;28;20213;-87
2024/02/23 13:19:47;;;;;;;14.47;9.03;;;10.40;99.90;;;;;;5056432;28;20244;-87
2024/02/23 13:22:51;;;;;;;14.97;9.07;;;10.40;99.90;;;;;;5071498;28;20341;-87
2024/02/23 13:25:40;;;;;;;15.43;9.03;;;10.30;99.90;;;;;;5057999;28;20221;-87
2024/02/23 13:28:30;;;;;;;13.03;9.03;;;10.30;99.90;;;;;;5071505;28;20194;-86
2024/02/23 13:31:20;;;;;;;15.60;8.77;;;10.30;99.90;;;;;;5057563;28;20186;-86
2024/02/23 13:34:09;;;;;;;15.33;9.10;;;10.30;99.90;;;;;;5057600;28;20583;-87
2024/02/23 13:36:57;;;;;;;13.60;9.40;;;10.30;99.90;;;;;;5071843;28;20194;-86
2024/02/23 13:39:44;;;;;;;13.87;9.40;;;10.20;99.90;;;;;;5055678;28;20194;-87
2024/02/23 13:42:32;;;;;;;11.23;8.47;;;10.20;99.90;;;;;;5072095;28;20673;-87
2024/02/23 13:45:20;;;;;;;14.57;8.73;;;10.10;99.90;;;;;;5072671;28;20228;-87
2024/02/23 13:48:07;;;;;;;15.40;9.07;;;10.10;99.90;;;;;;5070707;28;20218;-88
2024/02/23 13:50:55;;;;;;;12.90;9.50;;;10.20;99.90;;;;;;5071351;28;20197;-86
2024/02/23 13:53:42;;;;;;;15.20;9.23;;;10.10;99.90;;;;;;5073905;28;20609;-87
2024/02/23 13:56:30;;;;;;;13.03;8.97;;;10.10;99.90;;;;;;5071494;28;20669;-87
2024/02/23 13:59:18;;;;;;;12.23;9.10;;;10.10;99.90;;;;;;5072769;28;20194;-87
2024/02/23 14:02:06;;;;;;;13.27;8.57;;;10.00;99.90;;;;;;5057594;28;20216;-87
2024/02/23 14:05:01;;;;;;;13.30;8.90;;;10.00;99.90;;;;;;5070306;28;20230;-87
2024/02/23 14:07:49;;;;;;;14.97;9.37;;;10.10;99.90;;;;;;5071385;28;20277;-87
2024/02/23 14:10:36;;;;;;;14.90;10.47;;;10.10;99.90;;;;;;5070231;28;20611;-87
2024/02/23 14:13:24;;;;;;;15.37;10.00;;;10.10;99.90;;;;;;5056134;28;20629;-87
2024/02/23 14:16:12;;;;;;;15.10;9.87;;;10.10;99.90;;;;;;5057537;28;20277;-86
2024/02/23 14:18:59;;;;;;;13.43;9.27;;;10.00;99.90;;;;;;5071297;28;20197;-86
2024/02/23 14:21:48;;;;;;;13.47;9.20;;;9.90;99.90;;;;;;5057610;28;20281;-87
2024/02/23 14:24:35;;;;;;;15.23;9.93;;;10.00;99.90;;;;;;5071193;28;20222;-86
2024/02/23 14:27:23;;;;;;;14.83;10.30;;;9.90;99.90;;;;;;5056383;28;20202;-86
2024/02/23 14:30:13;;;;;;;15.37;10.30;;;9.90;99.90;;;;;;5071256;28;20198;-86
2024/02/23 14:33:01;;;;;;;24.80;11.43;;;9.90;99.90;;;;;;5070985;28;20217;-87
2024/02/23 14:35:52;;;;;;;16.97;11.07;;;9.90;99.90;;;;;;5071265;28;20202;-88
2024/02/23 14:38:40;;;;;;;15.80;10.70;;;9.80;99.90;;;;;;5070835;28;20204;-89
2024/02/23 14:41:27;;;;;;;17.63;10.60;;;9.90;99.90;;;;;;5071379;28;20190;-89
2024/02/23 14:44:15;;;;;;;17.10;10.90;;;9.80;99.90;;;;;;5071205;28;20493;-89
2024/02/23 14:47:06;;;;;;;17.83;11.03;;;9.80;99.90;;;;;;5056428;28;20225;-91
2024/02/23 14:49:54;;;;;;;16.03;11.20;;;9.80;99.90;;;;;;5058853;28;20198;-87
2024/02/23 14:52:44;;;;;;;17.40;11.37;;;9.90;99.90;;;;;;5075164;28;20189;-88